createdAt,value
2017-11-14T00:00:18.716Z,0
2017-11-14T00:01:21.491Z,0
2017-11-14T00:02:23.917Z,0
2017-11-14T00:03:26.344Z,0
2017-11-14T00:04:28.768Z,0
2017-11-14T00:05:31.549Z,0
2017-11-14T00:06:33.981Z,0
2017-11-14T00:07:36.408Z,0
2017-11-14T00:08:38.828Z,0
2017-11-14T00:09:41.253Z,0
2017-11-14T00:10:43.732Z,0
2017-11-14T00:11:46.166Z,0
2017-11-14T00:12:48.572Z,0
2017-11-14T00:13:50.993Z,0
2017-11-14T00:14:53.414Z,0
2017-11-14T00:15:55.831Z,0
2017-11-14T00:16:58.256Z,0
2017-11-14T00:18:00.675Z,0
2017-11-14T00:19:03.093Z,0
2017-11-14T00:20:05.518Z,0
2017-11-14T00:21:07.933Z,0
2017-11-14T00:22:10.359Z,0
2017-11-14T00:23:12.790Z,0
2017-11-14T00:24:15.196Z,0
2017-11-14T00:25:17.632Z,0
2017-11-14T00:26:20.062Z,0
2017-11-14T00:27:22.490Z,0
2017-11-14T00:28:24.924Z,0
2017-11-14T00:29:27.334Z,0
2017-11-14T00:30:30.115Z,0
2017-11-14T00:31:32.548Z,0
2017-11-14T00:32:34.976Z,0
2017-11-14T00:33:37.390Z,0
2017-11-14T00:34:39.820Z,0
2017-11-14T00:35:42.240Z,0
2017-11-14T00:36:44.670Z,0
2017-11-14T00:37:47.092Z,0
2017-11-14T00:38:49.508Z,0
2017-11-14T00:39:51.936Z,0
2017-11-14T00:40:54.355Z,0
2017-11-14T00:41:56.779Z,0
2017-11-14T00:42:59.192Z,0
2017-11-14T00:44:01.615Z,0
2017-11-14T00:45:04.036Z,0
2017-11-14T00:46:06.469Z,0
2017-11-14T00:47:08.894Z,0
2017-11-14T00:48:11.304Z,0
2017-11-14T00:49:13.728Z,0
2017-11-14T00:50:16.158Z,0
2017-11-14T00:51:18.575Z,0
2017-11-14T00:52:21.001Z,0
2017-11-14T00:53:23.773Z,0
2017-11-14T00:54:26.195Z,0
2017-11-14T00:55:28.623Z,0
2017-11-14T00:56:31.044Z,0
2017-11-14T00:57:33.458Z,0
2017-11-14T00:58:35.880Z,0
2017-11-14T00:59:38.311Z,0
2017-11-14T01:00:40.731Z,0
2017-11-14T01:01:43.158Z,0
2017-11-14T01:02:45.569Z,0
2017-11-14T01:03:47.993Z,0
2017-11-14T01:04:50.785Z,0
2017-11-14T01:05:53.555Z,0
2017-11-14T01:06:56.330Z,0
2017-11-14T01:07:58.775Z,0
2017-11-14T01:09:01.171Z,0
2017-11-14T01:10:03.603Z,0
2017-11-14T01:11:06.031Z,0
2017-11-14T01:12:08.440Z,0
2017-11-14T01:13:10.869Z,0
2017-11-14T01:14:13.294Z,0
2017-11-14T01:15:15.703Z,0
2017-11-14T01:16:18.130Z,0
2017-11-14T01:17:20.547Z,0
2017-11-14T01:18:22.967Z,0
2017-11-14T01:19:25.381Z,0
2017-11-14T01:20:27.796Z,0
2017-11-14T01:21:30.577Z,0
2017-11-14T01:22:33.042Z,0
2017-11-14T01:23:35.831Z,0
2017-11-14T01:24:38.613Z,0
2017-11-14T01:25:41.035Z,0
2017-11-14T01:26:43.461Z,0
2017-11-14T01:27:45.880Z,0
2017-11-14T01:28:48.300Z,0
2017-11-14T01:29:51.077Z,0
2017-11-14T01:30:53.505Z,0
2017-11-14T01:31:55.925Z,0
2017-11-14T01:32:58.349Z,0
2017-11-14T01:34:00.770Z,0
2017-11-14T01:35:03.193Z,0
2017-11-14T01:36:05.623Z,0
2017-11-14T01:37:08.034Z,0
2017-11-14T01:38:10.454Z,0
2017-11-14T01:39:12.868Z,0
2017-11-14T01:40:15.679Z,0
2017-11-14T01:41:18.097Z,0
2017-11-14T01:42:20.518Z,0
2017-11-14T01:43:22.927Z,0
2017-11-14T01:44:25.358Z,0
2017-11-14T01:45:27.783Z,0
2017-11-14T01:46:30.199Z,0
2017-11-14T01:47:32.989Z,0
2017-11-14T01:48:35.412Z,0
2017-11-14T01:49:37.829Z,0
2017-11-14T01:50:40.253Z,0
2017-11-14T01:51:42.683Z,0
2017-11-14T01:52:45.099Z,0
2017-11-14T01:53:47.531Z,0
2017-11-14T01:54:49.932Z,0
2017-11-14T01:55:52.736Z,0
2017-11-14T01:56:55.152Z,0
2017-11-14T01:57:57.577Z,0
2017-11-14T01:59:00.358Z,0
2017-11-14T02:00:03.160Z,0
2017-11-14T02:01:05.569Z,0
2017-11-14T02:02:08.383Z,0
2017-11-14T02:03:10.799Z,0
2017-11-14T02:04:13.210Z,0
2017-11-14T02:05:15.637Z,0
2017-11-14T02:06:18.050Z,0
2017-11-14T02:07:20.468Z,0
2017-11-14T02:08:22.896Z,0
2017-11-14T02:09:25.312Z,0
2017-11-14T02:10:27.732Z,0
2017-11-14T02:11:30.151Z,0
2017-11-14T02:12:32.572Z,0
2017-11-14T02:13:34.989Z,0
2017-11-14T02:14:37.408Z,0
2017-11-14T02:15:39.826Z,0
2017-11-14T02:16:42.237Z,0
2017-11-14T02:17:44.666Z,0
2017-11-14T02:18:47.097Z,0
2017-11-14T02:19:49.516Z,0
2017-11-14T02:20:51.939Z,0
2017-11-14T02:21:54.360Z,0
2017-11-14T02:22:56.782Z,0
2017-11-14T02:23:59.198Z,0
2017-11-14T02:25:01.617Z,0
2017-11-14T02:26:04.026Z,0
2017-11-14T02:27:06.440Z,0
2017-11-14T02:28:08.877Z,0
2017-11-14T02:29:11.653Z,0
2017-11-14T02:30:14.066Z,0
2017-11-14T02:31:16.484Z,0
2017-11-14T02:32:18.899Z,0
2017-11-14T02:33:21.324Z,0
2017-11-14T02:34:24.113Z,0
2017-11-14T02:35:26.520Z,0
2017-11-14T02:36:28.945Z,0
2017-11-14T02:37:31.367Z,0
2017-11-14T02:38:34.506Z,0
2017-11-14T02:39:36.927Z,0
2017-11-14T02:40:39.345Z,0
2017-11-14T02:41:41.760Z,0
2017-11-14T02:42:44.551Z,0
2017-11-14T02:43:46.981Z,0
2017-11-14T02:44:49.783Z,0
2017-11-14T02:45:52.198Z,0
2017-11-14T02:46:54.640Z,0
2017-11-14T02:47:57.429Z,0
2017-11-14T02:48:59.847Z,0
2017-11-14T02:50:02.274Z,0
2017-11-14T02:51:05.062Z,0
2017-11-14T02:52:07.487Z,0
2017-11-14T02:53:09.919Z,0
2017-11-14T02:54:12.317Z,0
2017-11-14T02:55:14.740Z,0
2017-11-14T02:56:17.159Z,0
2017-11-14T02:57:19.577Z,0
2017-11-14T02:58:21.994Z,0
2017-11-14T02:59:24.421Z,0
2017-11-14T03:00:27.191Z,0
2017-11-14T03:01:29.617Z,0
2017-11-14T03:02:32.037Z,0
2017-11-14T03:03:34.461Z,0
2017-11-14T03:04:37.239Z,0
2017-11-14T03:05:39.656Z,0
2017-11-14T03:06:42.086Z,0
2017-11-14T03:07:44.521Z,0
2017-11-14T03:08:46.926Z,0
2017-11-14T03:09:49.350Z,0
2017-11-14T03:10:51.768Z,0
2017-11-14T03:11:54.189Z,0
2017-11-14T03:12:56.611Z,0
2017-11-14T03:13:59.036Z,0
2017-11-14T03:15:01.455Z,0
2017-11-14T03:16:03.872Z,0
2017-11-14T03:17:06.289Z,0
2017-11-14T03:18:09.068Z,0
2017-11-14T03:19:11.509Z,0
2017-11-14T03:20:13.898Z,0
2017-11-14T03:21:16.318Z,0
2017-11-14T03:22:19.095Z,0
2017-11-14T03:23:21.882Z,0
2017-11-14T03:24:24.305Z,0
2017-11-14T03:25:26.721Z,0
2017-11-14T03:26:29.149Z,0
2017-11-14T03:27:31.940Z,0
2017-11-14T03:28:34.362Z,0
2017-11-14T03:29:36.780Z,0
2017-11-14T03:30:39.212Z,0
2017-11-14T03:31:42.017Z,0
2017-11-14T03:32:44.448Z,0
2017-11-14T03:33:46.861Z,0
2017-11-14T03:34:49.636Z,0
2017-11-14T03:35:52.063Z,0
2017-11-14T03:36:54.840Z,0
2017-11-14T03:37:57.264Z,0
2017-11-14T03:38:59.687Z,0
2017-11-14T03:40:02.451Z,0
2017-11-14T03:41:04.879Z,0
2017-11-14T03:42:07.649Z,0
2017-11-14T03:43:10.436Z,0
2017-11-14T03:44:12.854Z,0
2017-11-14T03:45:15.291Z,0
2017-11-14T03:46:17.713Z,0
2017-11-14T03:47:20.138Z,0
2017-11-14T03:48:22.556Z,0
2017-11-14T03:49:24.983Z,0
2017-11-14T03:50:27.411Z,0
2017-11-14T03:51:29.816Z,0
2017-11-14T03:52:32.605Z,0
2017-11-14T03:53:35.016Z,0
2017-11-14T03:54:37.436Z,0
2017-11-14T03:55:39.855Z,0
2017-11-14T03:56:42.279Z,0
2017-11-14T03:57:44.697Z,0
2017-11-14T03:58:47.126Z,0
2017-11-14T03:59:49.530Z,0
2017-11-14T04:00:51.950Z,0
2017-11-14T04:01:54.374Z,0
2017-11-14T04:02:56.786Z,0
2017-11-14T04:03:59.216Z,0
2017-11-14T04:05:01.641Z,0
2017-11-14T04:06:04.053Z,0
2017-11-14T04:07:06.488Z,0
2017-11-14T04:08:08.900Z,0
2017-11-14T04:09:11.321Z,0
2017-11-14T04:10:13.739Z,0
2017-11-14T04:11:16.535Z,0
2017-11-14T04:12:18.951Z,0
2017-11-14T04:13:21.381Z,0
2017-11-14T04:14:23.803Z,0
2017-11-14T04:15:26.221Z,0
2017-11-14T04:16:28.629Z,0
2017-11-14T04:17:31.085Z,0
2017-11-14T04:18:33.492Z,0
2017-11-14T04:19:35.910Z,0
2017-11-14T04:20:38.331Z,0
2017-11-14T04:21:40.751Z,0
2017-11-14T04:22:43.160Z,0
2017-11-14T04:23:45.591Z,0
2017-11-14T04:24:48.354Z,0
2017-11-14T04:25:50.773Z,0
2017-11-14T04:26:53.565Z,0
2017-11-14T04:27:55.972Z,0
2017-11-14T04:28:58.398Z,0
2017-11-14T04:30:00.810Z,0
2017-11-14T04:31:03.229Z,0
2017-11-14T04:32:06.006Z,0
2017-11-14T04:33:08.422Z,0
2017-11-14T04:34:10.843Z,0
2017-11-14T04:35:13.260Z,0
2017-11-14T04:36:15.689Z,0
2017-11-14T04:37:18.102Z,0
2017-11-14T04:38:20.533Z,0
2017-11-14T04:39:22.956Z,0
2017-11-14T04:40:25.724Z,0
2017-11-14T04:41:28.150Z,0
2017-11-14T04:42:30.566Z,0
2017-11-14T04:43:32.991Z,0
2017-11-14T04:44:35.432Z,0
2017-11-14T04:45:37.823Z,0
2017-11-14T04:46:40.258Z,0
2017-11-14T04:47:42.661Z,0
2017-11-14T04:48:45.090Z,0
2017-11-14T04:49:47.506Z,0
2017-11-14T04:50:49.918Z,0
2017-11-14T04:51:52.345Z,0
2017-11-14T04:52:54.762Z,0
2017-11-14T04:53:57.186Z,0
2017-11-14T04:54:59.609Z,0
2017-11-14T04:56:02.026Z,0
2017-11-14T04:57:04.449Z,0
2017-11-14T04:58:06.869Z,0
2017-11-14T04:59:09.654Z,0
2017-11-14T05:00:12.083Z,0
2017-11-14T05:01:14.512Z,0
2017-11-14T05:02:16.936Z,0
2017-11-14T05:03:19.373Z,0
2017-11-14T05:04:21.781Z,0
2017-11-14T05:05:24.207Z,0
2017-11-14T05:06:26.623Z,0
2017-11-14T05:07:29.422Z,0
2017-11-14T05:08:31.847Z,0
2017-11-14T05:09:34.270Z,0
2017-11-14T05:10:36.675Z,0
2017-11-14T05:11:39.098Z,0
2017-11-14T05:12:41.525Z,0
2017-11-14T05:13:43.950Z,0
2017-11-14T05:14:46.348Z,0
2017-11-14T05:15:48.763Z,0
2017-11-14T05:16:51.189Z,0
2017-11-14T05:17:53.610Z,0
2017-11-14T05:18:56.020Z,0
2017-11-14T05:19:58.436Z,0
2017-11-14T05:21:00.860Z,0
2017-11-14T05:22:03.294Z,0
2017-11-14T05:23:05.718Z,0
2017-11-14T05:24:08.133Z,0
2017-11-14T05:25:10.557Z,0
2017-11-14T05:26:12.989Z,0
2017-11-14T05:27:15.396Z,0
2017-11-14T05:28:17.843Z,0
2017-11-14T05:29:21.003Z,0
2017-11-14T05:30:23.420Z,0
2017-11-14T05:31:25.846Z,0
2017-11-14T05:32:28.617Z,0
2017-11-14T05:33:31.031Z,0
2017-11-14T05:34:33.449Z,0
2017-11-14T05:35:35.855Z,0
2017-11-14T05:36:38.287Z,0
2017-11-14T05:37:40.707Z,0
2017-11-14T05:38:43.459Z,0
2017-11-14T05:39:45.881Z,0
2017-11-14T05:40:48.304Z,0
2017-11-14T05:41:51.440Z,0
2017-11-14T05:42:53.865Z,0
2017-11-14T05:43:56.281Z,0
2017-11-14T05:44:58.703Z,0
2017-11-14T05:46:01.122Z,0
2017-11-14T05:47:03.549Z,0
2017-11-14T05:48:05.963Z,0
2017-11-14T05:49:08.383Z,0
2017-11-14T05:50:10.811Z,0
2017-11-14T05:51:13.226Z,0
2017-11-14T05:52:15.652Z,0
2017-11-14T05:53:18.430Z,0
2017-11-14T05:54:20.851Z,0
2017-11-14T05:55:23.288Z,0
2017-11-14T05:56:25.704Z,0
2017-11-14T05:57:28.112Z,0
2017-11-14T05:58:30.532Z,4
2017-11-14T05:59:33.690Z,4
2017-11-14T06:00:36.110Z,0
2017-11-14T06:01:38.532Z,4
2017-11-14T06:02:41.290Z,4
2017-11-14T06:03:43.710Z,4
2017-11-14T06:04:46.134Z,4
2017-11-14T06:05:48.552Z,4
2017-11-14T06:06:50.979Z,8
2017-11-14T06:07:53.401Z,12
2017-11-14T06:08:55.820Z,12
2017-11-14T06:09:58.254Z,12
2017-11-14T06:11:00.678Z,16
2017-11-14T06:12:03.092Z,16
2017-11-14T06:13:05.509Z,24
2017-11-14T06:14:07.937Z,28
2017-11-14T06:15:10.355Z,28
2017-11-14T06:16:12.772Z,32
2017-11-14T06:17:15.197Z,40
2017-11-14T06:18:17.612Z,48
2017-11-14T06:19:20.030Z,56
2017-11-14T06:20:22.466Z,64
2017-11-14T06:21:25.229Z,72
2017-11-14T06:22:27.651Z,84
2017-11-14T06:23:30.417Z,96
2017-11-14T06:24:32.831Z,112
2017-11-14T06:25:35.611Z,128
2017-11-14T06:26:38.024Z,144
2017-11-14T06:27:40.445Z,160
2017-11-14T06:28:42.872Z,180
2017-11-14T06:29:45.291Z,200
2017-11-14T06:30:47.707Z,220
2017-11-14T06:31:50.132Z,240
2017-11-14T06:32:52.545Z,268
2017-11-14T06:33:55.123Z,288
2017-11-14T06:34:57.906Z,320
2017-11-14T06:36:00.332Z,348
2017-11-14T06:37:03.091Z,376
2017-11-14T06:38:05.507Z,408
2017-11-14T06:39:07.926Z,436
2017-11-14T06:40:10.345Z,468
2017-11-14T06:41:13.495Z,500
2017-11-14T06:42:15.920Z,536
2017-11-14T06:43:18.329Z,572
2017-11-14T06:44:21.107Z,620
2017-11-14T06:45:23.537Z,660
2017-11-14T06:46:25.950Z,708
2017-11-14T06:47:28.370Z,760
2017-11-14T06:48:30.776Z,812
2017-11-14T06:49:33.198Z,856
2017-11-14T06:50:35.627Z,900
2017-11-14T06:51:38.041Z,948
2017-11-14T06:52:40.458Z,1016
2017-11-14T06:53:42.866Z,1088
2017-11-14T06:54:45.289Z,1168
2017-11-14T06:55:47.708Z,1252
2017-11-14T06:56:50.121Z,1352
2017-11-14T06:57:52.536Z,1448
2017-11-14T06:58:54.948Z,1536
2017-11-14T06:59:57.380Z,1672
2017-11-14T07:00:59.794Z,2016
2017-11-14T07:02:02.210Z,2264
2017-11-14T07:03:04.625Z,2504
2017-11-14T07:04:07.039Z,2844
2017-11-14T07:05:09.457Z,3088
2017-11-14T07:06:11.880Z,2768
2017-11-14T07:07:14.289Z,2592
2017-11-14T07:08:17.079Z,2924
2017-11-14T07:09:19.487Z,3480
2017-11-14T07:10:21.910Z,4276
2017-11-14T07:11:24.671Z,4772
2017-11-14T07:12:27.088Z,5268
2017-11-14T07:13:29.516Z,4072
2017-11-14T07:14:31.927Z,5372
2017-11-14T07:15:34.700Z,6216
2017-11-14T07:16:37.124Z,6784
2017-11-14T07:17:39.538Z,5148
2017-11-14T07:18:41.960Z,7780
2017-11-14T07:19:44.389Z,7428
2017-11-14T07:20:46.794Z,7072
2017-11-14T07:21:49.214Z,8048
2017-11-14T07:22:51.629Z,7924
2017-11-14T07:23:54.410Z,9456
2017-11-14T07:24:56.825Z,8980
2017-11-14T07:25:59.253Z,10912
2017-11-14T07:27:01.662Z,9148
2017-11-14T07:28:04.081Z,12312
2017-11-14T07:29:06.493Z,11340
2017-11-14T07:30:08.921Z,13656
2017-11-14T07:31:11.344Z,14008
2017-11-14T07:32:13.759Z,14880
2017-11-14T07:33:16.191Z,17664
2017-11-14T07:34:18.614Z,16448
2017-11-14T07:35:21.029Z,17184
2017-11-14T07:36:23.815Z,16192
2017-11-14T07:37:26.238Z,14244
2017-11-14T07:38:28.653Z,8640
2017-11-14T07:39:31.070Z,8524
2017-11-14T07:40:33.864Z,8936
2017-11-14T07:41:36.289Z,10332
2017-11-14T07:42:39.054Z,9752
2017-11-14T07:43:41.472Z,10320
2017-11-14T07:44:43.899Z,10776
2017-11-14T07:45:46.674Z,11444
2017-11-14T07:46:49.085Z,15900
2017-11-14T07:47:51.508Z,11900
2017-11-14T07:48:53.923Z,10936
2017-11-14T07:49:56.351Z,10672
2017-11-14T07:50:58.773Z,8292
2017-11-14T07:52:01.185Z,7632
2017-11-14T07:53:03.606Z,7432
2017-11-14T07:54:06.033Z,7528
2017-11-14T07:55:08.449Z,8132
2017-11-14T07:56:10.871Z,9936
2017-11-14T07:57:13.289Z,8248
2017-11-14T07:58:15.707Z,5708
2017-11-14T07:59:18.134Z,5172
2017-11-14T08:00:20.950Z,4984
2017-11-14T08:01:23.368Z,4856
2017-11-14T08:02:25.783Z,4832
2017-11-14T08:03:28.207Z,4808
2017-11-14T08:04:30.628Z,4820
2017-11-14T08:05:33.045Z,4916
2017-11-14T08:06:35.461Z,5108
2017-11-14T08:07:37.885Z,5252
2017-11-14T08:08:40.297Z,5428
2017-11-14T08:09:43.073Z,5616
2017-11-14T08:10:45.844Z,5840
2017-11-14T08:11:48.270Z,6300
2017-11-14T08:12:51.069Z,6708
2017-11-14T08:13:53.478Z,7220
2017-11-14T08:14:55.893Z,7740
2017-11-14T08:15:58.330Z,8240
2017-11-14T08:17:00.740Z,8700
2017-11-14T08:18:03.159Z,9036
2017-11-14T08:19:05.575Z,9732
2017-11-14T08:20:08.001Z,10216
2017-11-14T08:21:10.418Z,10900
2017-11-14T08:22:12.847Z,11468
2017-11-14T08:23:15.248Z,12340
2017-11-14T08:24:17.669Z,13196
2017-11-14T08:25:20.095Z,13568
2017-11-14T08:26:22.504Z,13740
2017-11-14T08:27:24.943Z,13684
2017-11-14T08:28:27.361Z,13592
2017-11-14T08:29:29.780Z,13444
2017-11-14T08:30:32.186Z,12956
2017-11-14T08:31:34.608Z,12636
2017-11-14T08:32:37.387Z,12080
2017-11-14T08:33:39.822Z,11224
2017-11-14T08:34:42.228Z,10116
2017-11-14T08:35:44.655Z,9008
2017-11-14T08:36:47.078Z,8168
2017-11-14T08:37:49.499Z,7624
2017-11-14T08:38:51.919Z,7332
2017-11-14T08:39:54.343Z,7212
2017-11-14T08:40:57.120Z,7256
2017-11-14T08:41:59.922Z,7460
2017-11-14T08:43:02.335Z,7668
2017-11-14T08:44:04.759Z,7928
2017-11-14T08:45:07.174Z,8324
2017-11-14T08:46:09.589Z,8740
2017-11-14T08:47:12.014Z,9056
2017-11-14T08:48:14.434Z,9236
2017-11-14T08:49:16.860Z,9088
2017-11-14T08:50:19.286Z,8964
2017-11-14T08:51:21.696Z,8840
2017-11-14T08:52:24.123Z,8624
2017-11-14T08:53:26.535Z,8160
2017-11-14T08:54:28.958Z,7604
2017-11-14T08:55:31.369Z,7088
2017-11-14T08:56:33.797Z,6584
2017-11-14T08:57:36.212Z,6364
2017-11-14T08:58:38.643Z,6328
2017-11-14T08:59:41.067Z,6528
2017-11-14T09:00:43.467Z,6920
2017-11-14T09:01:45.894Z,7604
2017-11-14T09:02:48.320Z,8460
2017-11-14T09:03:50.741Z,9188
2017-11-14T09:04:53.164Z,9492
2017-11-14T09:05:55.942Z,9620
2017-11-14T09:06:58.360Z,10040
2017-11-14T09:08:00.788Z,10668
2017-11-14T09:09:03.568Z,11748
2017-11-14T09:10:05.980Z,13156
2017-11-14T09:11:08.400Z,14648
2017-11-14T09:12:10.819Z,16576
2017-11-14T09:13:13.235Z,18112
2017-11-14T09:14:15.649Z,19680
2017-11-14T09:15:18.076Z,21056
2017-11-14T09:16:20.492Z,20480
2017-11-14T09:17:22.910Z,17868
2017-11-14T09:18:25.324Z,18272
2017-11-14T09:19:27.751Z,18400
2017-11-14T09:20:30.525Z,18752
2017-11-14T09:21:32.978Z,20288
2017-11-14T09:22:35.362Z,26208
2017-11-14T09:23:38.131Z,22560
2017-11-14T09:24:40.560Z,20672
2017-11-14T09:25:42.970Z,18976
2017-11-14T09:26:45.392Z,17820
2017-11-14T09:27:47.807Z,17628
2017-11-14T09:28:50.232Z,17936
2017-11-14T09:29:52.648Z,17564
2017-11-14T09:30:55.071Z,17008
2017-11-14T09:31:57.845Z,16328
2017-11-14T09:33:00.276Z,15708
2017-11-14T09:34:02.935Z,15328
2017-11-14T09:35:05.829Z,14896
2017-11-14T09:36:08.607Z,14460
2017-11-14T09:37:11.376Z,14120
2017-11-14T09:38:13.797Z,13872
2017-11-14T09:39:16.218Z,13632
2017-11-14T09:40:18.627Z,13152
2017-11-14T09:41:21.053Z,12536
2017-11-14T09:42:23.468Z,12248
2017-11-14T09:43:25.894Z,12092
2017-11-14T09:44:28.317Z,12020
2017-11-14T09:45:30.732Z,11636
2017-11-14T09:46:33.158Z,10544
2017-11-14T09:47:35.948Z,8980
2017-11-14T09:48:38.357Z,7796
2017-11-14T09:49:40.781Z,7580
2017-11-14T09:50:43.567Z,7920
2017-11-14T09:51:45.989Z,7716
2017-11-14T09:52:48.412Z,7556
2017-11-14T09:53:50.836Z,7880
2017-11-14T09:54:53.982Z,8092
2017-11-14T09:55:56.400Z,8288
2017-11-14T09:56:58.827Z,8888
2017-11-14T09:58:01.241Z,9868
2017-11-14T09:59:03.662Z,11076
2017-11-14T10:00:06.100Z,12208
2017-11-14T10:01:08.522Z,12548
2017-11-14T10:02:10.946Z,11420
2017-11-14T10:03:13.367Z,8692
2017-11-14T10:04:16.145Z,7472
2017-11-14T10:05:18.581Z,6016
2017-11-14T10:06:21.007Z,5868
2017-11-14T10:07:23.413Z,5596
2017-11-14T10:08:25.853Z,5196
2017-11-14T10:09:28.265Z,4784
2017-11-14T10:10:30.685Z,4448
2017-11-14T10:11:33.100Z,4272
2017-11-14T10:12:35.538Z,4392
2017-11-14T10:13:37.955Z,5024
2017-11-14T10:14:40.377Z,5996
2017-11-14T10:15:42.812Z,7068
2017-11-14T10:16:45.273Z,7952
2017-11-14T10:17:47.700Z,8524
2017-11-14T10:18:50.131Z,8568
2017-11-14T10:19:52.538Z,8084
2017-11-14T10:20:54.973Z,7576
2017-11-14T10:21:57.777Z,7360
2017-11-14T10:23:00.198Z,7416
2017-11-14T10:24:02.619Z,7440
2017-11-14T10:25:05.046Z,7236
2017-11-14T10:26:07.464Z,7152
2017-11-14T10:27:09.890Z,7196
2017-11-14T10:28:12.313Z,7608
2017-11-14T10:29:14.742Z,7956
2017-11-14T10:30:17.153Z,8204
2017-11-14T10:33:13.628Z,8712
2017-11-14T10:34:15.997Z,9520
2017-11-14T10:35:18.364Z,10832
2017-11-14T10:36:20.731Z,11792
2017-11-14T10:37:23.102Z,12968
2017-11-14T10:38:25.475Z,14056
2017-11-14T10:39:27.835Z,13916
2017-11-14T10:40:30.205Z,12932
2017-11-14T10:41:32.577Z,12520
2017-11-14T10:42:34.943Z,12752
2017-11-14T10:43:37.306Z,13300
2017-11-14T10:44:40.044Z,14000
2017-11-14T10:45:42.411Z,14212
2017-11-14T10:46:44.780Z,13908
2017-11-14T10:47:47.157Z,13080
2017-11-14T10:48:49.509Z,12508
2017-11-14T10:49:51.882Z,11880
2017-11-14T10:50:54.245Z,11672
2017-11-14T10:51:56.611Z,11368
2017-11-14T10:52:58.986Z,11192
2017-11-14T10:54:01.353Z,11076
2017-11-14T10:55:03.711Z,10880
2017-11-14T10:56:06.104Z,10700
2017-11-14T10:57:08.466Z,10716
2017-11-14T10:58:11.181Z,10972
2017-11-14T10:59:13.553Z,11448
2017-11-14T11:00:15.916Z,11724
2017-11-14T11:01:18.282Z,11264
2017-11-14T11:02:20.654Z,10212
2017-11-14T11:03:23.006Z,10060
2017-11-14T11:04:25.380Z,9800
2017-11-14T11:05:28.111Z,9348
2017-11-14T11:06:30.477Z,8804
2017-11-14T11:07:32.845Z,8160
2017-11-14T11:08:35.211Z,7828
2017-11-14T11:09:37.579Z,7784
2017-11-14T11:10:39.946Z,7740
2017-11-14T11:11:42.309Z,8000
2017-11-14T11:12:45.046Z,8876
2017-11-14T11:13:47.414Z,9616
2017-11-14T11:14:49.776Z,9232
2017-11-14T11:15:52.141Z,8996
2017-11-14T11:16:54.508Z,8996
2017-11-14T11:17:56.873Z,8552
2017-11-14T11:18:59.240Z,7820
2017-11-14T11:20:01.608Z,7240
2017-11-14T11:21:03.968Z,7040
2017-11-14T11:22:06.354Z,7112
2017-11-14T11:23:08.725Z,7120
2017-11-14T11:24:11.083Z,7156
2017-11-14T11:25:13.823Z,7216
2017-11-14T11:26:16.185Z,7456
2017-11-14T11:27:18.562Z,7556
2017-11-14T11:28:20.933Z,7384
2017-11-14T11:29:23.287Z,7180
2017-11-14T11:30:25.659Z,6964
2017-11-14T11:31:28.027Z,6752
2017-11-14T11:32:30.397Z,6396
2017-11-14T11:33:32.762Z,6040
2017-11-14T11:34:35.490Z,5812
2017-11-14T11:35:37.852Z,5680
2017-11-14T11:36:40.228Z,5716
2017-11-14T11:37:42.597Z,5856
2017-11-14T11:38:44.955Z,5740
2017-11-14T11:39:47.323Z,5284
2017-11-14T11:40:49.696Z,5004
2017-11-14T11:41:52.067Z,5108
2017-11-14T11:42:54.817Z,5348
2017-11-14T11:43:57.174Z,5368
2017-11-14T11:44:59.895Z,5220
2017-11-14T11:46:02.267Z,4924
2017-11-14T11:47:04.630Z,4640
2017-11-14T11:48:07.000Z,4680
2017-11-14T11:49:09.383Z,4992
2017-11-14T11:50:11.729Z,5472
2017-11-14T11:51:14.104Z,5928
2017-11-14T11:52:16.480Z,6336
2017-11-14T11:53:18.858Z,6608
2017-11-14T11:54:21.230Z,6820
2017-11-14T11:55:23.587Z,7512
2017-11-14T11:56:25.953Z,8296
2017-11-14T11:57:28.332Z,8744
2017-11-14T11:58:30.695Z,8864
2017-11-14T11:59:33.062Z,8668
2017-11-14T12:00:35.445Z,8220
2017-11-14T12:01:38.164Z,7556
2017-11-14T12:02:40.542Z,7164
2017-11-14T12:03:42.917Z,7172
2017-11-14T12:04:45.275Z,7236
2017-11-14T12:05:47.660Z,7300
2017-11-14T12:06:50.028Z,7424
2017-11-14T12:07:52.402Z,7444
2017-11-14T12:08:54.759Z,7312
2017-11-14T12:09:57.141Z,6808
2017-11-14T12:10:59.508Z,6128
2017-11-14T12:12:01.870Z,5476
2017-11-14T12:13:04.236Z,5064
2017-11-14T12:14:06.599Z,4828
2017-11-14T12:15:08.977Z,4480
2017-11-14T12:16:11.342Z,4072
2017-11-14T12:17:13.702Z,3800
2017-11-14T12:18:16.072Z,3736
2017-11-14T12:19:18.446Z,3732
2017-11-14T12:20:20.811Z,3680
2017-11-14T12:21:23.186Z,3608
2017-11-14T12:22:25.546Z,3588
2017-11-14T12:23:27.921Z,3560
2017-11-14T12:24:30.294Z,3592
2017-11-14T12:25:32.664Z,3696
2017-11-14T12:26:35.045Z,3780
2017-11-14T12:27:37.413Z,3692
2017-11-14T12:28:39.782Z,3624
2017-11-14T12:29:42.156Z,3616
2017-11-14T12:32:31.737Z,3788
2017-11-14T12:33:34.116Z,3780
2017-11-14T12:34:36.823Z,3664
2017-11-14T12:35:39.202Z,3520
2017-11-14T12:36:41.567Z,3464
2017-11-14T12:37:43.949Z,3492
2017-11-14T12:38:46.668Z,3352
2017-11-14T12:39:49.029Z,3200
2017-11-14T12:40:51.398Z,3196
2017-11-14T12:41:53.764Z,3372
2017-11-14T12:42:56.140Z,3536
2017-11-14T12:43:58.509Z,3832
2017-11-14T12:45:00.883Z,4084
2017-11-14T12:46:03.243Z,4336
2017-11-14T12:47:05.985Z,4292
2017-11-14T12:48:08.349Z,4176
2017-11-14T12:49:10.725Z,4024
2017-11-14T12:50:13.104Z,4156
2017-11-14T12:51:15.471Z,4412
2017-11-14T12:52:17.835Z,4544
2017-11-14T12:53:20.224Z,4656
2017-11-14T12:54:22.932Z,4884
2017-11-14T12:55:25.302Z,5320
2017-11-14T12:56:27.669Z,5652
2017-11-14T12:57:30.043Z,5828
2017-11-14T12:58:32.696Z,5912
2017-11-14T12:59:35.072Z,5844
2017-11-14T13:00:37.715Z,5796
2017-11-14T13:01:40.088Z,5848
2017-11-14T13:02:42.448Z,5984
2017-11-14T13:03:44.821Z,5960
2017-11-14T13:04:47.203Z,5748
2017-11-14T13:05:49.566Z,5500
2017-11-14T13:06:51.936Z,5468
2017-11-14T13:07:54.316Z,5196
2017-11-14T13:08:56.671Z,4792
2017-11-14T13:09:59.049Z,4508
2017-11-14T13:11:01.420Z,4328
2017-11-14T13:12:03.792Z,4112
2017-11-14T13:13:06.164Z,4092
2017-11-14T13:14:08.531Z,3984
2017-11-14T13:15:10.907Z,3668
2017-11-14T13:16:13.274Z,3440
2017-11-14T13:17:15.653Z,3152
2017-11-14T13:18:18.031Z,2964
2017-11-14T13:19:20.392Z,2892
2017-11-14T13:20:22.765Z,2736
2017-11-14T13:21:25.432Z,2540
2017-11-14T13:22:27.798Z,2400
2017-11-14T13:23:30.171Z,2396
2017-11-14T13:24:32.548Z,2332
2017-11-14T13:25:34.911Z,2412
2017-11-14T13:26:37.302Z,2520
2017-11-14T13:27:39.951Z,2268
2017-11-14T13:28:42.319Z,2248
2017-11-14T13:29:44.695Z,2136
2017-11-14T13:30:47.061Z,2148
2017-11-14T13:31:49.436Z,2116
2017-11-14T13:32:52.090Z,2192
2017-11-14T13:33:54.734Z,2228
2017-11-14T13:34:57.391Z,2088
2017-11-14T13:35:59.773Z,1872
2017-11-14T13:37:02.136Z,1840
2017-11-14T13:38:04.511Z,2020
2017-11-14T13:39:06.876Z,1928
2017-11-14T13:40:09.571Z,1680
2017-11-14T13:41:12.214Z,1576
2017-11-14T13:42:14.591Z,1544
2017-11-14T13:43:17.522Z,1588
2017-11-14T13:44:19.901Z,1624
2017-11-14T13:45:22.267Z,1752
2017-11-14T13:46:24.626Z,1716
2017-11-14T13:47:26.997Z,1832
2017-11-14T13:48:29.365Z,1856
2017-11-14T13:49:31.737Z,1676
2017-11-14T13:50:34.104Z,1576
2017-11-14T13:51:36.483Z,1572
2017-11-14T13:52:38.840Z,1732
2017-11-14T13:53:41.212Z,1688
2017-11-14T13:54:43.582Z,1512
2017-11-14T13:55:45.954Z,1440
2017-11-14T13:56:48.323Z,1268
2017-11-14T13:57:50.983Z,1252
2017-11-14T13:58:53.350Z,1220
2017-11-14T13:59:55.726Z,1144
2017-11-14T14:00:58.091Z,1192
2017-11-14T14:02:00.746Z,1120
2017-11-14T14:03:03.110Z,1068
2017-11-14T14:04:05.498Z,1036
2017-11-14T14:05:08.155Z,1048
2017-11-14T14:06:10.534Z,1092
2017-11-14T14:07:13.012Z,1160
2017-11-14T14:08:15.380Z,1156
2017-11-14T14:09:18.059Z,1140
2017-11-14T14:10:20.431Z,960
2017-11-14T14:11:22.799Z,980
2017-11-14T14:12:25.184Z,924
2017-11-14T14:13:27.543Z,964
2017-11-14T14:14:29.920Z,968
2017-11-14T14:15:32.577Z,880
2017-11-14T14:16:34.935Z,824
2017-11-14T14:17:37.303Z,940
2017-11-14T14:18:39.684Z,912
2017-11-14T14:19:42.057Z,780
2017-11-14T14:20:44.716Z,788
2017-11-14T14:21:47.094Z,788
2017-11-14T14:22:49.455Z,768
2017-11-14T14:23:52.612Z,720
2017-11-14T14:24:54.978Z,660
2017-11-14T14:25:57.633Z,628
2017-11-14T14:27:00.012Z,564
2017-11-14T14:28:02.690Z,492
2017-11-14T14:29:05.064Z,452
2017-11-14T14:30:07.442Z,464